Latest  Newer  Older  Last 2 hours slideshow  Last 24 hours slideshow  Refresh every 5 minutes 
Current image  Latest image  Rain/snow radar  Cloud coverage sat images 

All time is UTC (add 2 hours to UTC in wintertime, 3 hours to UTC in DST for Latvia local time)






2021/01/27 04:50 EYSA 270450Z 29012KT 4000 SN BKN007 OVC012 00/M01 Q0997 R14L/690491 R14R/690491 GRN TEMPO OVC006 YLO

2021/01/27 04:50 EEKA 270450Z 34014KT 3700 SN BKN003 OVC011 M00/M00 Q0997
2021/01/27 04:50 EEKE 270450Z 34008KT 310V010 3000 SN BKN007 OVC046 00/00 Q0997


2021/01/27 04:50 EETU 270450Z AUTO VRB03KT 3300 BR OVC003/// 01/00 Q0994
   RIGA AIRPORT     EVRA               56 55N  023 58E   10   X     T          6 LV
   LIEPAJA INTL     EVLA        26406  56 31N  021 06E    4   X                8 LV
   VENTPILS         EVVA               57 21N  021 33E    6   X                8 LV
   KAUNAS           EYKA               54 54N  023 55E   77   X     T          6 LT
   PALANGA INTL     EYPA               55 55N  021 03E   10   X                6 LT
   SIAULIAI INTL    EYSA               55 54N  023 24E  135   X     T          6 LT
   VILNIUS INTL     EYVI        26730  54 38N  025 17E  197   X     T          6 LT
   KARDLA           EEKA        26116  58 59N  022 50E    4   X                8 EE
   KURESSAARE       EEKE               58 14N  022 31E    4   X                8 EE
   PARNU            EEPU               58 25N  024 28E   14   X                8 EE
   TALLINN          EETN        26038  59 24N  024 49E   40   X     T          8 EE
   TARTU            EETU               58 19N  026 41E   67   X                8 EE